createdAt,value
2023-05-03T00:00:44.641Z,101145.63
2023-05-03T00:03:32.054Z,101150.00
2023-05-03T00:06:18.431Z,101150.19
2023-05-03T00:09:05.271Z,101137.47
2023-05-03T00:11:51.632Z,101147.09
2023-05-03T00:14:38.387Z,101142.56
2023-05-03T00:17:25.043Z,101142.78
2023-05-03T00:20:12.380Z,101146.25
2023-05-03T00:22:58.932Z,101127.94
2023-05-03T00:25:45.554Z,101143.81
2023-05-03T00:28:32.165Z,101132.66
2023-05-03T00:31:19.637Z,101133.72
2023-05-03T00:34:05.744Z,101124.50
2023-05-03T00:36:52.333Z,101157.69
2023-05-03T00:39:38.475Z,101153.28
2023-05-03T00:42:24.892Z,101137.72
2023-05-03T00:45:11.327Z,101118.28
2023-05-03T00:47:58.200Z,101153.34
2023-05-03T00:50:44.922Z,101107.91
2023-05-03T00:53:31.954Z,101131.66
2023-05-03T00:56:21.313Z,101145.88
2023-05-03T00:59:08.815Z,101147.66
2023-05-03T01:01:55.195Z,101137.78
2023-05-03T01:04:43.312Z,101132.75
2023-05-03T01:07:48.705Z,101145.50
2023-05-03T01:10:50.586Z,101142.38
2023-05-03T01:14:26.014Z,101136.81
2023-05-03T01:17:13.679Z,101141.78
2023-05-03T01:20:14.308Z,101139.63
2023-05-03T01:23:19.600Z,101145.56
2023-05-03T01:26:35.773Z,101161.75
2023-05-03T01:29:22.380Z,101133.41
2023-05-03T01:32:15.263Z,101114.59
2023-05-03T01:35:09.857Z,101142.94
2023-05-03T01:40:51.520Z,101150.50
2023-05-03T01:43:39.673Z,101147.44
2023-05-03T01:46:27.715Z,101140.00
2023-05-03T01:49:14.198Z,101122.84
2023-05-03T01:52:01.339Z,101140.63
2023-05-03T01:54:47.783Z,101175.00
2023-05-03T01:57:35.042Z,101158.75
2023-05-03T02:00:22.352Z,101176.19
2023-05-03T02:03:09.419Z,101171.66
2023-05-03T02:05:56.088Z,101169.50
2023-05-03T02:08:42.842Z,101154.81
2023-05-03T02:11:30.244Z,101172.66
2023-05-03T02:14:17.357Z,101168.34
2023-05-03T02:17:04.690Z,101167.53
2023-05-03T02:19:54.931Z,101173.47
2023-05-03T02:22:42.650Z,101175.41
2023-05-03T02:25:30.233Z,101135.66
2023-05-03T02:28:17.765Z,101176.22
2023-05-03T02:31:06.834Z,101128.31
2023-05-03T02:33:53.322Z,101170.50
2023-05-03T02:36:40.533Z,101180.22
2023-05-03T02:39:27.252Z,101170.28
2023-05-03T02:42:14.837Z,101166.78
2023-05-03T02:45:03.468Z,101171.44
2023-05-03T02:47:50.689Z,101155.69
2023-05-03T02:50:38.681Z,101163.34
2023-05-03T02:53:25.732Z,101172.34
2023-05-03T02:56:15.017Z,101172.94
2023-05-03T02:59:01.888Z,101164.31
2023-05-03T03:01:47.864Z,101177.38
2023-05-03T03:04:35.588Z,101184.44
2023-05-03T03:07:21.894Z,101173.22
2023-05-03T03:10:09.119Z,101184.66
2023-05-03T03:12:55.466Z,101189.63
2023-05-03T03:15:48.136Z,101191.94
2023-05-03T03:18:37.295Z,101196.22
2023-05-03T03:21:24.063Z,101203.88
2023-05-03T03:24:10.289Z,101182.19
2023-05-03T03:26:56.826Z,101196.63
2023-05-03T03:29:44.462Z,101191.47
2023-05-03T03:32:33.036Z,101216.31
2023-05-03T03:35:21.925Z,101215.00
2023-05-03T03:38:08.830Z,101216.31
2023-05-03T03:41:00.041Z,101171.34
2023-05-03T03:43:47.564Z,101222.59
2023-05-03T03:46:38.150Z,101205.13
2023-05-03T03:49:25.611Z,101196.75
2023-05-03T03:52:12.884Z,101224.63
2023-05-03T03:55:00.202Z,101217.16
2023-05-03T03:57:47.167Z,101189.97
2023-05-03T04:00:34.925Z,101242.88
2023-05-03T04:03:27.659Z,101224.88
2023-05-03T04:06:14.324Z,101243.53
2023-05-03T04:09:01.006Z,101235.66
2023-05-03T04:11:48.771Z,101204.56
2023-05-03T04:14:35.231Z,101237.75
2023-05-03T04:17:22.557Z,101228.53
2023-05-03T04:20:11.315Z,101247.84
2023-05-03T04:23:00.560Z,101263.13
2023-05-03T04:25:49.192Z,101256.56
2023-05-03T04:28:39.023Z,101263.47
2023-05-03T04:31:27.299Z,101249.16
2023-05-03T04:34:16.352Z,101256.00
2023-05-03T04:37:06.382Z,101260.69
2023-05-03T04:39:53.896Z,101275.72
2023-05-03T04:42:41.451Z,101257.28
2023-05-03T04:45:28.640Z,101229.44
2023-05-03T04:48:18.206Z,101253.94
2023-05-03T04:51:05.303Z,101259.44
2023-05-03T04:53:51.460Z,101201.94
2023-05-03T04:56:40.545Z,101265.44
2023-05-03T04:59:34.899Z,101266.63
2023-05-03T05:02:21.770Z,101284.47
2023-05-03T05:05:09.550Z,101280.34
2023-05-03T05:07:56.181Z,101282.69
2023-05-03T05:10:43.026Z,101276.66
2023-05-03T05:13:33.002Z,101280.84
2023-05-03T05:16:19.615Z,101287.41
2023-05-03T05:19:12.528Z,101280.69
2023-05-03T05:21:59.088Z,101292.16
2023-05-03T05:24:57.288Z,101297.50
2023-05-03T05:27:45.521Z,101303.75
2023-05-03T05:30:33.116Z,101285.25
2023-05-03T05:33:21.843Z,101304.78
2023-05-03T05:36:09.986Z,101288.72
2023-05-03T05:38:56.430Z,101277.28
2023-05-03T05:41:43.591Z,101323.59
2023-05-03T05:44:30.423Z,101308.84
2023-05-03T05:47:16.747Z,101323.03
2023-05-03T05:50:14.953Z,101317.53
2023-05-03T05:53:09.253Z,101325.88
2023-05-03T05:55:59.254Z,101280.34
2023-05-03T05:58:47.362Z,101317.09
2023-05-03T06:01:34.547Z,101315.91
2023-05-03T06:04:21.256Z,101337.41
2023-05-03T06:07:08.371Z,101330.75
2023-05-03T06:09:55.647Z,101326.13
2023-05-03T06:12:41.622Z,101349.16
2023-05-03T06:15:33.766Z,101349.59
2023-05-03T06:18:20.971Z,101320.78
2023-05-03T06:21:08.171Z,101332.38
2023-05-03T06:23:56.159Z,101363.03
2023-05-03T06:26:43.531Z,101350.28
2023-05-03T06:29:30.454Z,101350.34
2023-05-03T06:32:19.305Z,101358.88
2023-05-03T06:35:09.280Z,101335.34
2023-05-03T06:37:59.633Z,101349.16
2023-05-03T06:40:47.244Z,101359.41
2023-05-03T06:43:34.959Z,101363.69
2023-05-03T06:46:26.306Z,101360.00
2023-05-03T06:49:12.675Z,101324.84
2023-05-03T06:52:01.890Z,101319.50
2023-05-03T06:54:49.457Z,101362.16
2023-05-03T06:57:35.821Z,101351.91
2023-05-03T07:00:23.313Z,101363.22
2023-05-03T07:03:13.209Z,101365.41
2023-05-03T07:06:00.903Z,101371.22
2023-05-03T07:08:47.158Z,101327.31
2023-05-03T07:11:37.300Z,101367.28
2023-05-03T07:14:24.439Z,101356.69
2023-05-03T07:17:10.966Z,101373.94
2023-05-03T07:19:57.151Z,101366.81
2023-05-03T07:22:43.605Z,101363.03
2023-05-03T07:25:30.193Z,101382.75
2023-05-03T07:28:17.224Z,101353.13
2023-05-03T07:31:05.265Z,101372.41
2023-05-03T07:33:54.336Z,101386.44
2023-05-03T07:36:42.792Z,101370.59
2023-05-03T07:39:31.887Z,101373.66
2023-05-03T07:42:25.622Z,101380.19
2023-05-03T07:45:16.250Z,101383.13
2023-05-03T07:48:04.828Z,101370.13
2023-05-03T07:50:52.269Z,101389.84
2023-05-03T07:53:42.340Z,101387.41
2023-05-03T07:56:30.020Z,101387.63
2023-05-03T07:59:17.212Z,101384.16
2023-05-03T08:02:04.378Z,101382.00
2023-05-03T08:04:53.253Z,101381.09
2023-05-03T08:07:42.319Z,101375.78
2023-05-03T08:10:28.983Z,101377.03
2023-05-03T08:13:17.592Z,101377.69
2023-05-03T08:16:06.065Z,101367.22
2023-05-03T08:18:53.156Z,101346.28
2023-05-03T08:21:39.436Z,101375.13
2023-05-03T08:24:27.312Z,101374.03
2023-05-03T08:27:13.878Z,101359.22
2023-05-03T08:30:02.049Z,101362.69
2023-05-03T08:32:48.377Z,101373.91
2023-05-03T08:35:35.439Z,101371.16
2023-05-03T08:38:22.738Z,101359.03
2023-05-03T08:41:26.393Z,101373.31
2023-05-03T08:44:13.713Z,101378.56
2023-05-03T08:47:01.466Z,101382.28
2023-05-03T08:49:48.960Z,101385.47
2023-05-03T08:52:38.156Z,101386.09
2023-05-03T08:55:24.957Z,101379.09
2023-05-03T08:58:13.121Z,101378.81
2023-05-03T09:01:05.265Z,101389.84
2023-05-03T09:03:53.097Z,101373.50
2023-05-03T09:06:40.569Z,101384.47
2023-05-03T09:09:34.576Z,101387.84
2023-05-03T09:12:34.838Z,101388.63
2023-05-03T09:15:22.743Z,101389.84
2023-05-03T09:18:19.961Z,101353.94
2023-05-03T09:21:11.792Z,101400.91
2023-05-03T09:24:02.885Z,101395.31
2023-05-03T09:26:51.963Z,101407.28
2023-05-03T09:29:38.366Z,101397.94
2023-05-03T09:32:25.359Z,101394.78
2023-05-03T09:35:13.954Z,101391.72
2023-05-03T09:38:01.830Z,101397.34
2023-05-03T09:40:49.996Z,101388.88
2023-05-03T09:43:49.816Z,101370.72
2023-05-03T09:46:37.474Z,101356.50
2023-05-03T09:49:24.882Z,101387.69
2023-05-03T09:52:12.503Z,101342.22
2023-05-03T09:54:59.354Z,101364.13
2023-05-03T09:57:49.180Z,101343.41
2023-05-03T10:00:40.543Z,101358.22
2023-05-03T10:03:33.194Z,101326.47
2023-05-03T10:06:32.120Z,101373.06
2023-05-03T10:09:42.170Z,101365.81
2023-05-03T10:12:29.085Z,101367.16
2023-05-03T10:15:17.082Z,101366.09
2023-05-03T10:18:06.718Z,101371.66
2023-05-03T10:20:57.618Z,101375.91
2023-05-03T10:24:16.596Z,101375.47
2023-05-03T10:27:14.136Z,101370.69
2023-05-03T10:30:05.611Z,101372.59
2023-05-03T10:32:58.310Z,101361.06
2023-05-03T10:35:56.057Z,101374.28
2023-05-03T10:38:47.783Z,101371.66
2023-05-03T10:41:37.945Z,101369.59
2023-05-03T10:44:43.725Z,101375.91
2023-05-03T10:47:38.701Z,101370.75
2023-05-03T10:50:29.246Z,101360.03
2023-05-03T10:53:36.276Z,101329.81
2023-05-03T10:56:27.055Z,101371.13
2023-05-03T10:59:20.565Z,101368.81
2023-05-03T11:02:07.349Z,101366.13
2023-05-03T11:05:01.087Z,101368.25
2023-05-03T11:07:49.864Z,101359.22
2023-05-03T11:10:36.949Z,101363.94
2023-05-03T11:13:26.068Z,101356.00
2023-05-03T11:16:16.191Z,101366.81
2023-05-03T11:19:06.315Z,101373.84
2023-05-03T11:21:55.255Z,101366.16
2023-05-03T11:24:42.070Z,101375.91
2023-05-03T11:27:30.239Z,101361.44
2023-05-03T11:30:18.728Z,101358.06
2023-05-03T11:33:10.306Z,101374.66
2023-05-03T11:36:04.047Z,101387.34
2023-05-03T11:38:52.294Z,101371.97
2023-05-03T11:41:42.882Z,101372.50
2023-05-03T11:44:32.723Z,101352.78
2023-05-03T11:47:24.393Z,101361.94
2023-05-03T11:50:13.594Z,101370.41
2023-05-03T11:53:00.533Z,101371.84
2023-05-03T11:55:49.883Z,101329.94
2023-05-03T11:58:36.715Z,101360.06
2023-05-03T12:01:29.177Z,101354.63
2023-05-03T12:04:20.925Z,101356.41
2023-05-03T12:07:19.548Z,101355.66
2023-05-03T12:10:35.712Z,101350.44
2023-05-03T12:13:40.700Z,101356.91
2023-05-03T12:16:51.330Z,101367.81
2023-05-03T12:19:48.532Z,101368.88
2023-05-03T12:22:40.614Z,101368.22
2023-05-03T12:25:34.082Z,101362.06
2023-05-03T12:28:23.003Z,101376.03
2023-05-03T12:36:49.185Z,101373.13
2023-05-03T12:39:39.541Z,101367.31
2023-05-03T12:42:29.045Z,101367.53
2023-05-03T12:45:16.044Z,101355.88
2023-05-03T12:48:03.822Z,101347.94
2023-05-03T12:50:52.022Z,101343.53
2023-05-03T12:53:39.372Z,101344.47
2023-05-03T12:56:26.092Z,101335.38
2023-05-03T13:04:58.807Z,101354.53
2023-05-03T13:07:52.439Z,101351.44
2023-05-03T13:10:44.156Z,101348.56
2023-05-03T13:13:30.429Z,101333.50
2023-05-03T13:16:17.443Z,101349.19
2023-05-03T13:19:06.477Z,101347.69
2023-05-03T13:21:53.406Z,101341.78
2023-05-03T13:24:47.118Z,101343.16
2023-05-03T13:27:36.763Z,101343.03
2023-05-03T13:30:23.827Z,101309.31
2023-05-03T13:33:12.657Z,101342.03
2023-05-03T13:35:59.209Z,101302.47
2023-05-03T13:38:46.300Z,101329.56
2023-05-03T13:41:32.602Z,101342.38
2023-05-03T13:44:19.720Z,101331.88
2023-05-03T13:47:06.509Z,101315.69
2023-05-03T13:49:57.735Z,101335.47
2023-05-03T13:52:45.081Z,101331.31
2023-05-03T13:55:32.163Z,101314.22
2023-05-03T13:58:19.507Z,101334.25
2023-05-03T14:01:06.871Z,101321.56
2023-05-03T14:03:58.412Z,101323.41
2023-05-03T14:06:47.155Z,101316.56
2023-05-03T14:09:39.733Z,101306.66
2023-05-03T14:12:27.754Z,101313.72
2023-05-03T14:15:15.384Z,101311.28
2023-05-03T14:18:04.936Z,101306.34
2023-05-03T14:20:52.563Z,101309.25
2023-05-03T14:23:40.546Z,101310.38
2023-05-03T14:26:29.558Z,101316.56
2023-05-03T14:29:16.890Z,101308.72
2023-05-03T14:32:04.104Z,101308.41
2023-05-03T14:34:50.695Z,101301.25
2023-05-03T14:37:37.287Z,101309.28
2023-05-03T14:40:23.704Z,101314.31
2023-05-03T14:43:09.952Z,101318.78
2023-05-03T14:45:57.377Z,101301.75
2023-05-03T14:48:44.904Z,101320.03
2023-05-03T14:51:32.397Z,101315.44
2023-05-03T14:54:19.953Z,101303.88
2023-05-03T14:57:05.826Z,101322.56
2023-05-03T14:59:52.838Z,101318.72
2023-05-03T15:02:39.109Z,101309.66
2023-05-03T15:05:26.205Z,101313.22
2023-05-03T15:08:17.638Z,101311.88
2023-05-03T15:11:05.400Z,101303.72
2023-05-03T15:13:53.045Z,101305.47
2023-05-03T15:16:39.530Z,101312.22
2023-05-03T15:19:26.933Z,101312.41
2023-05-03T15:22:13.275Z,101304.56
2023-05-03T15:24:59.832Z,101299.53
2023-05-03T15:27:46.787Z,101312.91
2023-05-03T15:30:34.503Z,101305.34
2023-05-03T15:33:20.963Z,101310.00
2023-05-03T15:36:08.722Z,101311.81
2023-05-03T15:38:55.900Z,101274.84
2023-05-03T15:41:42.847Z,101312.22
2023-05-03T15:44:29.017Z,101302.84
2023-05-03T15:47:15.855Z,101311.72
2023-05-03T15:50:03.259Z,101302.88
2023-05-03T15:52:50.401Z,101294.00
2023-05-03T15:55:37.071Z,101310.25
2023-05-03T15:58:25.564Z,101315.59
2023-05-03T16:01:12.349Z,101286.56
2023-05-03T16:03:59.817Z,101310.59
2023-05-03T16:06:46.832Z,101300.47
2023-05-03T16:09:34.339Z,101290.75
2023-05-03T16:12:20.427Z,101312.59
2023-05-03T16:15:08.709Z,101293.91
2023-05-03T16:17:56.177Z,101307.91
2023-05-03T16:20:43.409Z,101309.41
2023-05-03T16:23:29.971Z,101304.38
2023-05-03T16:26:19.525Z,101308.72
2023-05-03T16:29:07.173Z,101307.50
2023-05-03T16:31:55.322Z,101299.31
2023-05-03T16:34:41.710Z,101296.88
2023-05-03T16:37:31.019Z,101288.75
2023-05-03T16:40:17.545Z,101257.00
2023-05-03T16:43:10.470Z,101300.69
2023-05-03T16:46:00.795Z,101266.06
2023-05-03T16:48:48.213Z,101291.00
2023-05-03T16:51:34.714Z,101291.31
2023-05-03T16:54:21.307Z,101291.31
2023-05-03T16:57:10.696Z,101293.75
2023-05-03T17:00:04.917Z,101297.22
2023-05-03T17:03:01.899Z,101254.81
2023-05-03T17:05:57.145Z,101283.81
2023-05-03T17:08:50.765Z,101288.22
2023-05-03T17:11:51.213Z,101289.34
2023-05-03T17:14:41.989Z,101290.66
2023-05-03T17:17:34.407Z,101292.66
2023-05-03T17:20:23.617Z,101299.91
2023-05-03T17:23:16.490Z,101268.09
2023-05-03T17:26:17.133Z,101298.16
2023-05-03T17:29:08.608Z,101302.09
2023-05-03T17:32:02.270Z,101298.88
2023-05-03T17:34:56.868Z,101297.47
2023-05-03T17:37:47.235Z,101298.97
2023-05-03T17:40:47.775Z,101299.13
2023-05-03T17:43:40.324Z,101208.16
2023-05-03T17:46:37.120Z,101302.91
2023-05-03T17:49:27.203Z,101274.47
2023-05-03T17:52:20.247Z,101285.53
2023-05-03T17:55:16.174Z,101270.41
2023-05-03T17:58:12.096Z,101312.00
2023-05-03T18:01:01.863Z,101284.53
2023-05-03T18:03:49.864Z,101286.19
2023-05-03T18:06:39.322Z,101287.41
2023-05-03T18:13:10.323Z,101211.44
2023-05-03T18:15:58.071Z,101302.63
2023-05-03T18:18:51.148Z,101308.41
2023-05-03T18:21:45.685Z,101268.63
2023-05-03T18:24:43.822Z,101312.00
2023-05-03T18:27:37.169Z,101304.97
2023-05-03T18:30:29.517Z,101320.28
2023-05-03T18:33:19.289Z,101312.91
2023-05-03T18:36:12.294Z,101309.13
2023-05-03T18:39:05.267Z,101309.13
2023-05-03T18:42:03.168Z,101316.91
2023-05-03T18:44:58.238Z,101293.28
2023-05-03T18:47:52.261Z,101316.19
2023-05-03T18:50:46.179Z,101291.25
2023-05-03T18:53:37.218Z,101314.34
2023-05-03T18:56:31.416Z,101319.94
2023-05-03T18:59:21.022Z,101323.00
2023-05-03T19:02:14.798Z,101315.34
2023-05-03T19:05:04.744Z,101313.69
2023-05-03T19:07:54.913Z,101318.69
2023-05-03T19:10:42.522Z,101321.25
2023-05-03T19:13:32.595Z,101318.78
2023-05-03T19:16:23.383Z,101329.63
2023-05-03T19:19:13.731Z,101310.78
2023-05-03T19:22:02.804Z,101315.91
2023-05-03T19:25:37.842Z,101299.34
2023-05-03T19:28:43.728Z,101248.75
2023-05-03T19:31:42.331Z,101312.50
2023-05-03T19:34:52.879Z,101323.50
2023-05-03T19:37:46.573Z,101314.00
2023-05-03T19:40:58.559Z,101303.38
2023-05-03T19:43:55.992Z,101315.94
2023-05-03T19:47:26.129Z,101327.66
2023-05-03T19:50:21.954Z,101254.25
2023-05-03T19:53:28.143Z,101239.88
2023-05-03T19:56:33.528Z,101248.72
2023-05-03T19:59:26.322Z,101308.63
2023-05-03T20:02:17.260Z,101320.09
2023-05-03T20:05:05.730Z,101325.59
2023-05-03T20:07:57.371Z,101326.38
2023-05-03T20:10:46.315Z,101328.63
2023-05-03T20:13:34.034Z,101324.03
2023-05-03T20:16:21.813Z,101331.97
2023-05-03T20:19:14.767Z,101322.25
2023-05-03T20:22:01.218Z,101333.78
2023-05-03T20:24:49.227Z,101320.53
2023-05-03T20:27:36.402Z,101319.72
2023-05-03T20:30:25.485Z,101330.94
2023-05-03T20:33:11.626Z,101318.69
2023-05-03T20:35:58.088Z,101320.84
2023-05-03T20:38:46.319Z,101328.50
2023-05-03T20:41:38.214Z,101334.22
2023-05-03T20:44:26.089Z,101333.41
2023-05-03T20:47:13.243Z,101324.91
2023-05-03T20:50:00.069Z,101335.41
2023-05-03T20:52:48.383Z,101336.44
2023-05-03T20:55:35.546Z,101343.38
2023-05-03T20:58:23.491Z,101321.28
2023-05-03T21:01:10.329Z,101311.91
2023-05-03T21:03:58.062Z,101335.19
2023-05-03T21:06:45.450Z,101334.97
2023-05-03T21:09:35.892Z,101312.66
2023-05-03T21:12:24.250Z,101330.38
2023-05-03T21:15:14.456Z,101330.44
2023-05-03T21:18:10.037Z,101316.00
2023-05-03T21:20:58.286Z,101328.13
2023-05-03T21:23:48.153Z,101324.69
2023-05-03T21:26:35.935Z,101328.91
2023-05-03T21:29:22.429Z,101324.69
2023-05-03T21:32:09.439Z,101321.06
2023-05-03T21:34:56.213Z,101321.50
2023-05-03T21:37:46.937Z,101316.16
2023-05-03T21:40:39.861Z,101305.69
2023-05-03T21:43:27.825Z,101305.34
2023-05-03T21:46:16.086Z,101313.16
2023-05-03T21:49:06.900Z,101319.69
2023-05-03T21:51:54.136Z,101321.66
2023-05-03T21:54:41.989Z,101327.94
2023-05-03T21:57:28.366Z,101281.84
2023-05-03T22:00:21.012Z,101325.00
2023-05-03T22:03:09.348Z,101330.25
2023-05-03T22:05:56.853Z,101315.25
2023-05-03T22:08:45.476Z,101324.81
2023-05-03T22:11:34.853Z,101323.75
2023-05-03T22:14:22.077Z,101291.81
2023-05-03T22:17:09.105Z,101326.00
2023-05-03T22:19:58.639Z,101325.31
2023-05-03T22:22:45.970Z,101325.44
2023-05-03T22:25:32.751Z,101307.88
2023-05-03T22:28:23.487Z,101298.31
2023-05-03T22:31:11.061Z,101312.78
2023-05-03T22:33:59.772Z,101318.66
2023-05-03T22:36:49.965Z,101310.59
2023-05-03T22:39:45.621Z,101313.81
2023-05-03T22:42:33.392Z,101312.94
2023-05-03T22:45:23.233Z,101292.72
2023-05-03T22:48:10.381Z,101301.41
2023-05-03T22:51:00.824Z,101320.25
2023-05-03T22:53:47.776Z,101297.81
2023-05-03T22:56:36.618Z,101317.22
2023-05-03T22:59:26.374Z,101308.78
2023-05-03T23:02:15.436Z,101272.25
2023-05-03T23:05:02.466Z,101267.88
2023-05-03T23:07:56.757Z,101307.16
2023-05-03T23:10:52.201Z,101310.19
2023-05-03T23:13:42.304Z,101302.66
2023-05-03T23:16:28.950Z,101293.88
2023-05-03T23:19:20.995Z,101308.88
2023-05-03T23:22:07.612Z,101297.16
2023-05-03T23:25:09.057Z,101293.06
2023-05-03T23:27:58.420Z,101283.75
2023-05-03T23:30:51.523Z,101299.31
2023-05-03T23:33:46.263Z,101203.06
2023-05-03T23:36:35.223Z,101282.72
2023-05-03T23:39:28.237Z,101290.31
2023-05-03T23:42:15.972Z,101296.03
2023-05-03T23:45:04.738Z,101274.13
2023-05-03T23:47:53.606Z,101269.44
2023-05-03T23:50:39.844Z,101266.16
2023-05-03T23:53:26.699Z,101247.41
2023-05-03T23:56:14.006Z,101253.88
2023-05-03T23:59:04.018Z,101266.69
